sensor_id;sensor_type;location;lat;lon;timestamp;temperature;humidity
1786;DHT22;890;48.158;11.540;2023-05-23T00:01:02;19.40;71.30
1786;DHT22;890;48.158;11.540;2023-05-23T00:03:28;19.40;71.70
1786;DHT22;890;48.158;11.540;2023-05-23T00:05:55;19.30;71.70
1786;DHT22;890;48.158;11.540;2023-05-23T00:08:21;19.30;72.10
1786;DHT22;890;48.158;11.540;2023-05-23T00:10:47;19.20;72.20
1786;DHT22;890;48.158;11.540;2023-05-23T00:13:13;19.20;72.30
1786;DHT22;890;48.158;11.540;2023-05-23T00:15:39;19.10;72.30
1786;DHT22;890;48.158;11.540;2023-05-23T00:18:06;19.10;72.40
1786;DHT22;890;48.158;11.540;2023-05-23T00:20:34;19.10;72.70
1786;DHT22;890;48.158;11.540;2023-05-23T00:23:01;19.00;72.70
1786;DHT22;890;48.158;11.540;2023-05-23T00:25:28;19.10;73.00
1786;DHT22;890;48.158;11.540;2023-05-23T00:27:59;19.10;73.10
1786;DHT22;890;48.158;11.540;2023-05-23T00:30:25;19.10;73.40
1786;DHT22;890;48.158;11.540;2023-05-23T00:32:51;19.20;73.30
1786;DHT22;890;48.158;11.540;2023-05-23T00:35:19;19.20;73.10
1786;DHT22;890;48.158;11.540;2023-05-23T00:37:45;19.20;73.10
1786;DHT22;890;48.158;11.540;2023-05-23T00:40:12;19.30;73.10
1786;DHT22;890;48.158;11.540;2023-05-23T00:42:37;19.20;73.00
1786;DHT22;890;48.158;11.540;2023-05-23T00:45:04;19.20;72.90
1786;DHT22;890;48.158;11.540;2023-05-23T00:47:30;19.20;72.80
1786;DHT22;890;48.158;11.540;2023-05-23T00:49:56;19.20;73.50
1786;DHT22;890;48.158;11.540;2023-05-23T00:52:22;19.20;72.70
1786;DHT22;890;48.158;11.540;2023-05-23T00:54:48;19.20;72.80
1786;DHT22;890;48.158;11.540;2023-05-23T00:57:14;19.20;72.80
1786;DHT22;890;48.158;11.540;2023-05-23T00:59:39;19.10;72.80
1786;DHT22;890;48.158;11.540;2023-05-23T01:02:06;19.10;72.80
1786;DHT22;890;48.158;11.540;2023-05-23T01:04:32;19.10;73.00
1786;DHT22;890;48.158;11.540;2023-05-23T01:06:58;19.00;73.00
1786;DHT22;890;48.158;11.540;2023-05-23T01:09:26;19.10;73.10
1786;DHT22;890;48.158;11.540;2023-05-23T01:12:08;19.10;73.10
1786;DHT22;890;48.158;11.540;2023-05-23T01:15:04;19.10;73.10
1786;DHT22;890;48.158;11.540;2023-05-23T01:20:21;19.00;72.90
1786;DHT22;890;48.158;11.540;2023-05-23T01:28:36;19.00;73.10
1786;DHT22;890;48.158;11.540;2023-05-23T01:31:03;19.00;73.10
1786;DHT22;890;48.158;11.540;2023-05-23T01:33:31;19.00;73.20
1786;DHT22;890;48.158;11.540;2023-05-23T01:36:00;19.00;73.30
1786;DHT22;890;48.158;11.540;2023-05-23T01:38:27;19.10;73.40
1786;DHT22;890;48.158;11.540;2023-05-23T01:40:53;19.00;73.40
1786;DHT22;890;48.158;11.540;2023-05-23T01:43:19;18.90;73.30
1786;DHT22;890;48.158;11.540;2023-05-23T01:45:45;18.90;73.40
1786;DHT22;890;48.158;11.540;2023-05-23T01:48:11;18.90;73.60
1786;DHT22;890;48.158;11.540;2023-05-23T01:50:38;18.90;73.70
1786;DHT22;890;48.158;11.540;2023-05-23T01:53:05;18.90;73.70
1786;DHT22;890;48.158;11.540;2023-05-23T01:55:31;18.90;73.70
1786;DHT22;890;48.158;11.540;2023-05-23T01:57:58;18.80;73.70
1786;DHT22;890;48.158;11.540;2023-05-23T02:00:24;18.80;73.90
1786;DHT22;890;48.158;11.540;2023-05-23T02:02:49;18.80;74.00
1786;DHT22;890;48.158;11.540;2023-05-23T02:05:15;18.80;74.00
1786;DHT22;890;48.158;11.540;2023-05-23T02:07:41;18.80;74.00
1786;DHT22;890;48.158;11.540;2023-05-23T02:10:07;18.70;74.00
1786;DHT22;890;48.158;11.540;2023-05-23T02:12:33;18.70;74.30
1786;DHT22;890;48.158;11.540;2023-05-23T02:14:59;18.70;74.50
1786;DHT22;890;48.158;11.540;2023-05-23T02:17:24;18.60;74.40
1786;DHT22;890;48.158;11.540;2023-05-23T02:19:50;18.70;74.60
1786;DHT22;890;48.158;11.540;2023-05-23T02:22:16;18.70;74.60
1786;DHT22;890;48.158;11.540;2023-05-23T02:24:41;18.70;74.50
1786;DHT22;890;48.158;11.540;2023-05-23T02:27:07;18.70;74.50
1786;DHT22;890;48.158;11.540;2023-05-23T02:29:32;18.60;74.60
1786;DHT22;890;48.158;11.540;2023-05-23T02:31:58;18.80;75.00
1786;DHT22;890;48.158;11.540;2023-05-23T02:34:24;18.60;75.00
1786;DHT22;890;48.158;11.540;2023-05-23T02:36:49;18.60;75.20
1786;DHT22;890;48.158;11.540;2023-05-23T02:39:16;18.50;75.30
1786;DHT22;890;48.158;11.540;2023-05-23T02:41:42;18.50;75.60
1786;DHT22;890;48.158;11.540;2023-05-23T02:44:07;18.40;75.70
1786;DHT22;890;48.158;11.540;2023-05-23T02:46:33;18.40;75.90
1786;DHT22;890;48.158;11.540;2023-05-23T02:48:58;18.30;76.00
1786;DHT22;890;48.158;11.540;2023-05-23T02:51:24;18.30;76.20
1786;DHT22;890;48.158;11.540;2023-05-23T02:53:50;18.40;76.40
1786;DHT22;890;48.158;11.540;2023-05-23T02:56:16;18.20;76.40
1786;DHT22;890;48.158;11.540;2023-05-23T02:58:41;18.10;76.70
1786;DHT22;890;48.158;11.540;2023-05-23T03:01:07;18.00;77.00
1786;DHT22;890;48.158;11.540;2023-05-23T03:03:33;18.00;77.20
1786;DHT22;890;48.158;11.540;2023-05-23T03:06:00;18.00;77.50
1786;DHT22;890;48.158;11.540;2023-05-23T03:08:26;18.00;77.80
1786;DHT22;890;48.158;11.540;2023-05-23T03:10:51;17.90;78.60
1786;DHT22;890;48.158;11.540;2023-05-23T03:13:17;17.90;78.00
1786;DHT22;890;48.158;11.540;2023-05-23T03:15:43;17.90;78.20
1786;DHT22;890;48.158;11.540;2023-05-23T03:18:09;17.90;78.30
1786;DHT22;890;48.158;11.540;2023-05-23T03:20:35;18.10;78.60
1786;DHT22;890;48.158;11.540;2023-05-23T03:23:01;17.90;78.50
1786;DHT22;890;48.158;11.540;2023-05-23T03:25:26;18.00;78.70
1786;DHT22;890;48.158;11.540;2023-05-23T03:27:52;18.00;78.70
1786;DHT22;890;48.158;11.540;2023-05-23T03:30:17;18.00;78.80
1786;DHT22;890;48.158;11.540;2023-05-23T03:32:43;18.00;79.00
1786;DHT22;890;48.158;11.540;2023-05-23T03:35:09;17.80;79.30
1786;DHT22;890;48.158;11.540;2023-05-23T03:37:34;17.80;79.50
1786;DHT22;890;48.158;11.540;2023-05-23T03:40:00;17.80;79.70
1786;DHT22;890;48.158;11.540;2023-05-23T03:42:27;17.70;79.80
1786;DHT22;890;48.158;11.540;2023-05-23T03:44:52;17.70;80.30
1786;DHT22;890;48.158;11.540;2023-05-23T03:47:18;17.60;80.50
1786;DHT22;890;48.158;11.540;2023-05-23T03:49:44;17.50;80.80
1786;DHT22;890;48.158;11.540;2023-05-23T03:52:09;17.60;81.10
1786;DHT22;890;48.158;11.540;2023-05-23T03:54:35;17.50;81.20
1786;DHT22;890;48.158;11.540;2023-05-23T03:57:01;17.40;81.40
1786;DHT22;890;48.158;11.540;2023-05-23T03:59:27;17.50;81.70
1786;DHT22;890;48.158;11.540;2023-05-23T04:01:53;17.50;81.70
1786;DHT22;890;48.158;11.540;2023-05-23T04:04:19;17.50;81.90
1786;DHT22;890;48.158;11.540;2023-05-23T04:06:45;17.40;82.10
1786;DHT22;890;48.158;11.540;2023-05-23T04:09:12;17.30;82.40
1786;DHT22;890;48.158;11.540;2023-05-23T04:11:38;17.30;82.80
1786;DHT22;890;48.158;11.540;2023-05-23T04:14:04;17.30;83.10
1786;DHT22;890;48.158;11.540;2023-05-23T04:16:29;17.30;83.20
1786;DHT22;890;48.158;11.540;2023-05-23T04:18:58;17.20;83.50
1786;DHT22;890;48.158;11.540;2023-05-23T04:21:24;17.20;83.80
1786;DHT22;890;48.158;11.540;2023-05-23T04:23:49;17.30;84.00
1786;DHT22;890;48.158;11.540;2023-05-23T04:26:15;17.30;84.10
1786;DHT22;890;48.158;11.540;2023-05-23T04:28:41;17.40;84.20
1786;DHT22;890;48.158;11.540;2023-05-23T04:31:10;17.30;84.10
1786;DHT22;890;48.158;11.540;2023-05-23T04:33:36;17.30;84.20
1786;DHT22;890;48.158;11.540;2023-05-23T04:36:02;17.40;84.70
1786;DHT22;890;48.158;11.540;2023-05-23T04:38:28;17.30;84.60
1786;DHT22;890;48.158;11.540;2023-05-23T04:40:54;17.40;84.80
1786;DHT22;890;48.158;11.540;2023-05-23T04:43:19;17.30;84.70
1786;DHT22;890;48.158;11.540;2023-05-23T04:45:46;17.30;84.90
1786;DHT22;890;48.158;11.540;2023-05-23T04:48:14;17.50;85.20
1786;DHT22;890;48.158;11.540;2023-05-23T04:50:41;17.60;85.10
1786;DHT22;890;48.158;11.540;2023-05-23T04:53:07;17.60;85.10
1786;DHT22;890;48.158;11.540;2023-05-23T04:55:32;17.60;85.00
1786;DHT22;890;48.158;11.540;2023-05-23T04:57:59;17.80;85.20
1786;DHT22;890;48.158;11.540;2023-05-23T05:00:25;17.70;85.10
1786;DHT22;890;48.158;11.540;2023-05-23T05:02:51;17.80;85.20
1786;DHT22;890;48.158;11.540;2023-05-23T05:05:17;17.90;85.20
1786;DHT22;890;48.158;11.540;2023-05-23T05:07:42;17.80;85.00
1786;DHT22;890;48.158;11.540;2023-05-23T05:10:09;17.90;85.20
1786;DHT22;890;48.158;11.540;2023-05-23T05:12:44;17.80;85.10
1786;DHT22;890;48.158;11.540;2023-05-23T05:15:17;17.90;85.40
1786;DHT22;890;48.158;11.540;2023-05-23T05:17:43;17.90;85.60
1786;DHT22;890;48.158;11.540;2023-05-23T05:20:09;18.00;85.60
1786;DHT22;890;48.158;11.540;2023-05-23T05:22:38;18.00;85.70
1786;DHT22;890;48.158;11.540;2023-05-23T05:25:08;18.00;85.60
1786;DHT22;890;48.158;11.540;2023-05-23T05:27:34;18.10;85.70
1786;DHT22;890;48.158;11.540;2023-05-23T05:30:04;18.20;85.70
1786;DHT22;890;48.158;11.540;2023-05-23T05:32:30;18.20;85.50
1786;DHT22;890;48.158;11.540;2023-05-23T05:34:58;18.30;85.30
1786;DHT22;890;48.158;11.540;2023-05-23T05:37:24;18.40;85.40
1786;DHT22;890;48.158;11.540;2023-05-23T05:39:49;18.50;85.40
1786;DHT22;890;48.158;11.540;2023-05-23T05:42:15;18.60;85.10
1786;DHT22;890;48.158;11.540;2023-05-23T05:44:41;18.60;84.80
1786;DHT22;890;48.158;11.540;2023-05-23T05:47:06;18.70;84.70
1786;DHT22;890;48.158;11.540;2023-05-23T05:49:32;18.70;84.90
1786;DHT22;890;48.158;11.540;2023-05-23T05:51:57;18.80;85.20
1786;DHT22;890;48.158;11.540;2023-05-23T05:54:23;18.90;85.00
1786;DHT22;890;48.158;11.540;2023-05-23T05:56:49;18.90;84.80
1786;DHT22;890;48.158;11.540;2023-05-23T05:59:14;19.00;84.50
1786;DHT22;890;48.158;11.540;2023-05-23T06:01:40;19.10;84.10
1786;DHT22;890;48.158;11.540;2023-05-23T06:04:05;19.20;84.00
1786;DHT22;890;48.158;11.540;2023-05-23T06:06:31;19.30;83.90
1786;DHT22;890;48.158;11.540;2023-05-23T06:08:58;19.40;84.00
1786;DHT22;890;48.158;11.540;2023-05-23T06:11:24;19.40;83.80
1786;DHT22;890;48.158;11.540;2023-05-23T06:13:50;19.40;83.90
1786;DHT22;890;48.158;11.540;2023-05-23T06:16:16;19.50;83.70
1786;DHT22;890;48.158;11.540;2023-05-23T06:18:42;19.50;83.80
1786;DHT22;890;48.158;11.540;2023-05-23T06:21:08;19.50;83.70
1786;DHT22;890;48.158;11.540;2023-05-23T06:23:34;19.50;83.50
1786;DHT22;890;48.158;11.540;2023-05-23T06:25:59;19.40;83.30
1786;DHT22;890;48.158;11.540;2023-05-23T06:28:25;19.20;83.40
1786;DHT22;890;48.158;11.540;2023-05-23T06:30:50;19.40;83.90
1786;DHT22;890;48.158;11.540;2023-05-23T06:33:16;19.40;83.70
1786;DHT22;890;48.158;11.540;2023-05-23T06:35:42;19.50;83.50
1786;DHT22;890;48.158;11.540;2023-05-23T06:38:07;19.60;83.50
1786;DHT22;890;48.158;11.540;2023-05-23T06:40:33;19.60;83.50
1786;DHT22;890;48.158;11.540;2023-05-23T06:42:59;19.80;83.60
1786;DHT22;890;48.158;11.540;2023-05-23T06:45:24;19.90;83.40
1786;DHT22;890;48.158;11.540;2023-05-23T06:47:50;20.10;83.10
1786;DHT22;890;48.158;11.540;2023-05-23T06:50:16;20.30;82.60
1786;DHT22;890;48.158;11.540;2023-05-23T06:52:45;20.30;82.30
1786;DHT22;890;48.158;11.540;2023-05-23T06:55:11;20.20;82.10
1786;DHT22;890;48.158;11.540;2023-05-23T06:57:42;20.20;82.20
1786;DHT22;890;48.158;11.540;2023-05-23T07:00:08;20.30;82.10
1786;DHT22;890;48.158;11.540;2023-05-23T07:02:34;20.40;81.70
1786;DHT22;890;48.158;11.540;2023-05-23T07:05:00;20.50;81.00
1786;DHT22;890;48.158;11.540;2023-05-23T07:07:25;20.60;80.70
1786;DHT22;890;48.158;11.540;2023-05-23T07:09:51;20.50;80.60
1786;DHT22;890;48.158;11.540;2023-05-23T07:12:16;20.40;80.90
1786;DHT22;890;48.158;11.540;2023-05-23T07:14:42;20.30;81.10
1786;DHT22;890;48.158;11.540;2023-05-23T07:17:07;20.30;81.20
1786;DHT22;890;48.158;11.540;2023-05-23T07:19:33;20.40;81.30
1786;DHT22;890;48.158;11.540;2023-05-23T07:21:58;20.60;81.30
1786;DHT22;890;48.158;11.540;2023-05-23T07:24:24;20.60;81.00
1786;DHT22;890;48.158;11.540;2023-05-23T07:26:50;20.50;80.60
1786;DHT22;890;48.158;11.540;2023-05-23T07:29:15;20.50;80.30
1786;DHT22;890;48.158;11.540;2023-05-23T07:31:41;20.40;80.60
1786;DHT22;890;48.158;11.540;2023-05-23T07:34:06;20.30;80.50
1786;DHT22;890;48.158;11.540;2023-05-23T07:36:32;20.30;80.90
1786;DHT22;890;48.158;11.540;2023-05-23T07:39:00;20.40;81.00
1786;DHT22;890;48.158;11.540;2023-05-23T07:41:25;20.40;80.40
1786;DHT22;890;48.158;11.540;2023-05-23T07:43:51;20.30;80.30
1786;DHT22;890;48.158;11.540;2023-05-23T07:46:17;20.20;80.30
1786;DHT22;890;48.158;11.540;2023-05-23T07:48:42;20.20;80.70
1786;DHT22;890;48.158;11.540;2023-05-23T07:51:08;20.20;80.80
1786;DHT22;890;48.158;11.540;2023-05-23T07:53:33;20.20;80.90
1786;DHT22;890;48.158;11.540;2023-05-23T07:56:04;20.30;80.80
1786;DHT22;890;48.158;11.540;2023-05-23T07:58:30;20.40;80.90
1786;DHT22;890;48.158;11.540;2023-05-23T08:00:55;20.40;80.90
1786;DHT22;890;48.158;11.540;2023-05-23T08:03:22;20.30;80.70
1786;DHT22;890;48.158;11.540;2023-05-23T08:05:48;20.10;80.90
1786;DHT22;890;48.158;11.540;2023-05-23T08:08:14;20.10;81.00
1786;DHT22;890;48.158;11.540;2023-05-23T08:10:40;20.10;81.20
1786;DHT22;890;48.158;11.540;2023-05-23T08:13:08;20.10;81.30
1786;DHT22;890;48.158;11.540;2023-05-23T08:15:34;20.10;81.30
1786;DHT22;890;48.158;11.540;2023-05-23T08:18:00;20.20;81.40
1786;DHT22;890;48.158;11.540;2023-05-23T08:20:26;20.20;81.10
1786;DHT22;890;48.158;11.540;2023-05-23T08:22:59;20.10;81.10
1786;DHT22;890;48.158;11.540;2023-05-23T08:25:25;20.10;81.20
1786;DHT22;890;48.158;11.540;2023-05-23T08:27:58;20.20;81.00
1786;DHT22;890;48.158;11.540;2023-05-23T08:30:25;20.30;80.90
1786;DHT22;890;48.158;11.540;2023-05-23T08:32:55;20.30;80.70
1786;DHT22;890;48.158;11.540;2023-05-23T08:35:21;20.20;80.80
1786;DHT22;890;48.158;11.540;2023-05-23T08:37:47;20.30;81.10
1786;DHT22;890;48.158;11.540;2023-05-23T08:40:17;20.20;81.20
1786;DHT22;890;48.158;11.540;2023-05-23T08:42:44;20.40;81.00
1786;DHT22;890;48.158;11.540;2023-05-23T08:45:10;20.30;80.90
1786;DHT22;890;48.158;11.540;2023-05-23T08:47:36;20.40;80.80
1786;DHT22;890;48.158;11.540;2023-05-23T08:50:11;20.50;81.00
1786;DHT22;890;48.158;11.540;2023-05-23T08:52:42;20.30;81.00
1786;DHT22;890;48.158;11.540;2023-05-23T08:55:10;20.20;81.20
1786;DHT22;890;48.158;11.540;2023-05-23T08:57:37;20.40;80.90
1786;DHT22;890;48.158;11.540;2023-05-23T09:00:04;20.40;80.60
1786;DHT22;890;48.158;11.540;2023-05-23T09:02:36;20.30;80.90
1786;DHT22;890;48.158;11.540;2023-05-23T09:05:01;20.30;81.10
1786;DHT22;890;48.158;11.540;2023-05-23T09:07:28;20.40;80.80
1786;DHT22;890;48.158;11.540;2023-05-23T09:09:54;20.50;80.70
1786;DHT22;890;48.158;11.540;2023-05-23T09:12:19;20.70;80.30
1786;DHT22;890;48.158;11.540;2023-05-23T09:14:47;20.60;80.10
1786;DHT22;890;48.158;11.540;2023-05-23T09:17:20;20.70;80.20
1786;DHT22;890;48.158;11.540;2023-05-23T09:19:46;20.70;79.50
1786;DHT22;890;48.158;11.540;2023-05-23T09:22:12;20.60;79.20
1786;DHT22;890;48.158;11.540;2023-05-23T09:24:38;20.60;79.70
1786;DHT22;890;48.158;11.540;2023-05-23T09:27:07;20.60;78.90
1786;DHT22;890;48.158;11.540;2023-05-23T09:29:37;20.70;78.80
1786;DHT22;890;48.158;11.540;2023-05-23T09:32:11;20.70;78.80
1786;DHT22;890;48.158;11.540;2023-05-23T09:34:53;20.70;78.80
1786;DHT22;890;48.158;11.540;2023-05-23T09:37:20;20.80;78.90
1786;DHT22;890;48.158;11.540;2023-05-23T09:39:49;20.90;78.40
1786;DHT22;890;48.158;11.540;2023-05-23T09:42:19;20.80;78.10
1786;DHT22;890;48.158;11.540;2023-05-23T09:44:46;20.90;78.20
1786;DHT22;890;48.158;11.540;2023-05-23T09:47:11;21.00;78.20
1786;DHT22;890;48.158;11.540;2023-05-23T09:49:38;21.00;78.30
1786;DHT22;890;48.158;11.540;2023-05-23T09:52:04;20.70;78.20
1786;DHT22;890;48.158;11.540;2023-05-23T09:54:30;20.60;78.30
1786;DHT22;890;48.158;11.540;2023-05-23T09:56:57;20.60;78.50
1786;DHT22;890;48.158;11.540;2023-05-23T09:59:27;20.50;78.70
1786;DHT22;890;48.158;11.540;2023-05-23T10:01:56;20.50;78.80
1786;DHT22;890;48.158;11.540;2023-05-23T10:04:24;20.60;78.80
1786;DHT22;890;48.158;11.540;2023-05-23T10:06:56;20.60;78.90
1786;DHT22;890;48.158;11.540;2023-05-23T10:09:25;20.60;79.10
1786;DHT22;890;48.158;11.540;2023-05-23T10:15:02;20.50;79.20
1786;DHT22;890;48.158;11.540;2023-05-23T10:20:15;20.40;79.10
1786;DHT22;890;48.158;11.540;2023-05-23T10:22:41;20.50;79.40
1786;DHT22;890;48.158;11.540;2023-05-23T10:25:07;20.60;79.10
1786;DHT22;890;48.158;11.540;2023-05-23T10:27:38;20.60;78.90
1786;DHT22;890;48.158;11.540;2023-05-23T10:30:05;20.80;78.90
1786;DHT22;890;48.158;11.540;2023-05-23T10:32:32;21.10;78.90
1786;DHT22;890;48.158;11.540;2023-05-23T10:34:59;21.30;79.30
1786;DHT22;890;48.158;11.540;2023-05-23T10:45:17;20.90;76.10
1786;DHT22;890;48.158;11.540;2023-05-23T10:47:45;20.90;76.30
1786;DHT22;890;48.158;11.540;2023-05-23T10:50:15;21.10;77.30
1786;DHT22;890;48.158;11.540;2023-05-23T10:52:42;21.90;79.50
1786;DHT22;890;48.158;11.540;2023-05-23T10:55:14;22.80;78.70
1786;DHT22;890;48.158;11.540;2023-05-23T10:57:43;23.50;76.40
1786;DHT22;890;48.158;11.540;2023-05-23T11:00:13;24.30;77.20
1786;DHT22;890;48.158;11.540;2023-05-23T11:02:51;24.60;72.30
1786;DHT22;890;48.158;11.540;2023-05-23T11:05:22;24.60;69.20
1786;DHT22;890;48.158;11.540;2023-05-23T11:08:11;25.00;69.00
1786;DHT22;890;48.158;11.540;2023-05-23T11:11:01;25.00;66.50
1786;DHT22;890;48.158;11.540;2023-05-23T11:18:50;25.80;63.00
1786;DHT22;890;48.158;11.540;2023-05-23T11:21:16;26.60;63.10
1786;DHT22;890;48.158;11.540;2023-05-23T11:23:42;26.90;60.60
1786;DHT22;890;48.158;11.540;2023-05-23T11:26:30;27.30;60.00
1786;DHT22;890;48.158;11.540;2023-05-23T11:28:57;26.90;58.60
1786;DHT22;890;48.158;11.540;2023-05-23T11:31:23;26.50;58.50
1786;DHT22;890;48.158;11.540;2023-05-23T11:33:52;26.50;58.00
1786;DHT22;890;48.158;11.540;2023-05-23T11:36:20;26.60;58.30
1786;DHT22;890;48.158;11.540;2023-05-23T11:38:46;26.90;58.40
1786;DHT22;890;48.158;11.540;2023-05-23T11:41:11;27.20;58.70
1786;DHT22;890;48.158;11.540;2023-05-23T11:43:39;27.20;56.90
1786;DHT22;890;48.158;11.540;2023-05-23T11:46:13;26.70;56.90
1786;DHT22;890;48.158;11.540;2023-05-23T11:48:44;27.10;57.70
1786;DHT22;890;48.158;11.540;2023-05-23T11:51:09;27.60;56.30
1786;DHT22;890;48.158;11.540;2023-05-23T11:53:35;27.30;55.30
1786;DHT22;890;48.158;11.540;2023-05-23T11:56:01;26.90;55.10
1786;DHT22;890;48.158;11.540;2023-05-23T11:58:36;26.60;55.40
1786;DHT22;890;48.158;11.540;2023-05-23T12:01:07;26.80;55.70
1786;DHT22;890;48.158;11.540;2023-05-23T12:03:34;26.80;55.20
1786;DHT22;890;48.158;11.540;2023-05-23T12:05:59;26.40;54.90
1786;DHT22;890;48.158;11.540;2023-05-23T12:08:26;25.70;55.40
1786;DHT22;890;48.158;11.540;2023-05-23T12:13:19;25.20;56.90
1786;DHT22;890;48.158;11.540;2023-05-23T12:15:44;25.00;57.00
1786;DHT22;890;48.158;11.540;2023-05-23T12:18:12;25.40;57.90
1786;DHT22;890;48.158;11.540;2023-05-23T12:20:37;26.40;57.50
1786;DHT22;890;48.158;11.540;2023-05-23T12:23:05;27.10;56.80
1786;DHT22;890;48.158;11.540;2023-05-23T12:25:39;27.80;55.00
1786;DHT22;890;48.158;11.540;2023-05-23T12:28:05;28.10;53.20
1786;DHT22;890;48.158;11.540;2023-05-23T12:30:40;28.40;52.90
1786;DHT22;890;48.158;11.540;2023-05-23T12:33:07;28.00;52.70
1786;DHT22;890;48.158;11.540;2023-05-23T12:35:33;28.00;53.30
1786;DHT22;890;48.158;11.540;2023-05-23T12:37:59;27.50;53.70
1786;DHT22;890;48.158;11.540;2023-05-23T12:40:25;27.20;54.20
1786;DHT22;890;48.158;11.540;2023-05-23T12:42:55;27.00;53.70
1786;DHT22;890;48.158;11.540;2023-05-23T12:45:22;26.60;54.00
1786;DHT22;890;48.158;11.540;2023-05-23T12:47:48;26.30;54.50
1786;DHT22;890;48.158;11.540;2023-05-23T12:50:14;25.80;54.40
1786;DHT22;890;48.158;11.540;2023-05-23T12:52:39;25.70;55.00
1786;DHT22;890;48.158;11.540;2023-05-23T12:55:06;25.60;55.30
1786;DHT22;890;48.158;11.540;2023-05-23T12:57:33;25.30;56.30
1786;DHT22;890;48.158;11.540;2023-05-23T12:59:59;24.80;57.40
1786;DHT22;890;48.158;11.540;2023-05-23T13:02:27;24.80;58.20
1786;DHT22;890;48.158;11.540;2023-05-23T13:04:53;25.00;57.70
1786;DHT22;890;48.158;11.540;2023-05-23T13:07:18;25.00;57.20
1786;DHT22;890;48.158;11.540;2023-05-23T13:09:44;24.90;56.70
1786;DHT22;890;48.158;11.540;2023-05-23T13:12:10;24.60;56.90
1786;DHT22;890;48.158;11.540;2023-05-23T13:14:36;24.70;57.10
1786;DHT22;890;48.158;11.540;2023-05-23T13:17:02;24.80;57.10
1786;DHT22;890;48.158;11.540;2023-05-23T13:19:28;24.90;57.30
1786;DHT22;890;48.158;11.540;2023-05-23T13:21:53;24.80;57.50
1786;DHT22;890;48.158;11.540;2023-05-23T13:24:19;24.80;57.70
1786;DHT22;890;48.158;11.540;2023-05-23T13:26:45;24.80;58.00
1786;DHT22;890;48.158;11.540;2023-05-23T13:29:10;24.90;57.40
1786;DHT22;890;48.158;11.540;2023-05-23T13:31:36;25.00;57.10
1786;DHT22;890;48.158;11.540;2023-05-23T13:34:02;25.00;57.10
1786;DHT22;890;48.158;11.540;2023-05-23T13:36:27;25.00;56.60
1786;DHT22;890;48.158;11.540;2023-05-23T13:38:53;25.00;56.40
1786;DHT22;890;48.158;11.540;2023-05-23T13:41:19;25.00;56.10
1786;DHT22;890;48.158;11.540;2023-05-23T13:43:45;24.90;56.30
1786;DHT22;890;48.158;11.540;2023-05-23T13:46:11;24.80;55.80
1786;DHT22;890;48.158;11.540;2023-05-23T13:48:37;24.60;55.60
1786;DHT22;890;48.158;11.540;2023-05-23T13:51:02;24.60;56.10
1786;DHT22;890;48.158;11.540;2023-05-23T13:53:28;24.70;56.20
1786;DHT22;890;48.158;11.540;2023-05-23T13:55:53;24.80;55.90
1786;DHT22;890;48.158;11.540;2023-05-23T13:58:19;24.60;54.90
1786;DHT22;890;48.158;11.540;2023-05-23T14:00:45;24.30;55.00
1786;DHT22;890;48.158;11.540;2023-05-23T14:03:11;24.20;55.50
1786;DHT22;890;48.158;11.540;2023-05-23T14:05:37;24.10;55.70
1786;DHT22;890;48.158;11.540;2023-05-23T14:08:03;24.00;55.90
1786;DHT22;890;48.158;11.540;2023-05-23T14:10:29;24.30;56.20
1786;DHT22;890;48.158;11.540;2023-05-23T14:12:54;24.30;56.30
1786;DHT22;890;48.158;11.540;2023-05-23T14:15:20;24.40;55.90
1786;DHT22;890;48.158;11.540;2023-05-23T14:17:46;24.60;56.10
1786;DHT22;890;48.158;11.540;2023-05-23T14:20:12;24.60;55.80
1786;DHT22;890;48.158;11.540;2023-05-23T14:22:37;24.50;55.60
1786;DHT22;890;48.158;11.540;2023-05-23T14:25:04;24.30;55.80
1786;DHT22;890;48.158;11.540;2023-05-23T14:27:31;24.30;56.30
1786;DHT22;890;48.158;11.540;2023-05-23T14:29:57;24.30;56.30
1786;DHT22;890;48.158;11.540;2023-05-23T14:32:23;24.30;56.20
1786;DHT22;890;48.158;11.540;2023-05-23T14:34:49;24.20;56.10
1786;DHT22;890;48.158;11.540;2023-05-23T14:37:14;24.20;56.10
1786;DHT22;890;48.158;11.540;2023-05-23T14:39:40;24.10;56.20
1786;DHT22;890;48.158;11.540;2023-05-23T14:42:06;24.00;56.20
1786;DHT22;890;48.158;11.540;2023-05-23T14:44:31;23.90;56.30
1786;DHT22;890;48.158;11.540;2023-05-23T14:46:57;24.00;56.20
1786;DHT22;890;48.158;11.540;2023-05-23T14:49:23;23.90;56.30
1786;DHT22;890;48.158;11.540;2023-05-23T14:51:48;24.00;56.40
1786;DHT22;890;48.158;11.540;2023-05-23T14:54:15;23.90;56.40
1786;DHT22;890;48.158;11.540;2023-05-23T14:56:41;23.80;56.50
1786;DHT22;890;48.158;11.540;2023-05-23T14:59:07;23.60;56.60
1786;DHT22;890;48.158;11.540;2023-05-23T15:01:33;23.60;56.70
1786;DHT22;890;48.158;11.540;2023-05-23T15:03:58;23.40;56.70
1786;DHT22;890;48.158;11.540;2023-05-23T15:06:24;24.10;57.20
1786;DHT22;890;48.158;11.540;2023-05-23T15:08:50;23.60;56.70
1786;DHT22;890;48.158;11.540;2023-05-23T15:11:16;23.60;56.70
1786;DHT22;890;48.158;11.540;2023-05-23T15:13:42;23.40;56.80
1786;DHT22;890;48.158;11.540;2023-05-23T15:16:07;23.40;57.20
1786;DHT22;890;48.158;11.540;2023-05-23T15:18:33;23.40;57.20
1786;DHT22;890;48.158;11.540;2023-05-23T15:20:59;23.30;57.30
1786;DHT22;890;48.158;11.540;2023-05-23T15:23:24;23.20;57.50
1786;DHT22;890;48.158;11.540;2023-05-23T15:25:50;23.00;57.50
1786;DHT22;890;48.158;11.540;2023-05-23T15:28:16;23.00;57.60
1786;DHT22;890;48.158;11.540;2023-05-23T15:30:42;23.00;57.50
1786;DHT22;890;48.158;11.540;2023-05-23T15:33:08;23.00;57.60
1786;DHT22;890;48.158;11.540;2023-05-23T15:35:33;22.90;57.50
1786;DHT22;890;48.158;11.540;2023-05-23T15:37:59;22.90;57.50
1786;DHT22;890;48.158;11.540;2023-05-23T15:40:25;22.90;57.60
1786;DHT22;890;48.158;11.540;2023-05-23T15:42:50;22.90;57.60
1786;DHT22;890;48.158;11.540;2023-05-23T15:45:16;22.80;57.10
1786;DHT22;890;48.158;11.540;2023-05-23T15:47:41;22.90;56.70
1786;DHT22;890;48.158;11.540;2023-05-23T15:50:07;22.90;56.20
1786;DHT22;890;48.158;11.540;2023-05-23T15:52:33;22.90;56.20
1786;DHT22;890;48.158;11.540;2023-05-23T15:54:58;22.90;56.40
1786;DHT22;890;48.158;11.540;2023-05-23T15:57:25;23.00;56.40
1786;DHT22;890;48.158;11.540;2023-05-23T15:59:51;22.90;55.90
1786;DHT22;890;48.158;11.540;2023-05-23T16:02:18;22.80;55.80
1786;DHT22;890;48.158;11.540;2023-05-23T16:04:43;22.60;55.50
1786;DHT22;890;48.158;11.540;2023-05-23T16:07:09;22.60;55.50
1786;DHT22;890;48.158;11.540;2023-05-23T16:09:35;22.60;55.60
1786;DHT22;890;48.158;11.540;2023-05-23T16:12:01;22.60;55.50
1786;DHT22;890;48.158;11.540;2023-05-23T16:14:26;22.50;55.40
1786;DHT22;890;48.158;11.540;2023-05-23T16:16:52;22.40;55.60
1786;DHT22;890;48.158;11.540;2023-05-23T16:19:17;22.30;55.80
1786;DHT22;890;48.158;11.540;2023-05-23T16:21:43;22.20;55.90
1786;DHT22;890;48.158;11.540;2023-05-23T16:24:10;22.30;56.20
1786;DHT22;890;48.158;11.540;2023-05-23T16:26:36;22.20;56.20
1786;DHT22;890;48.158;11.540;2023-05-23T16:29:03;22.10;56.20